Historique des stations

Station météo de Salbris

Altitude de la station : 113 m







Données météorologiques pour le 21/10/2021
Date
Heure
Températures Humidité Point de rosée Vitesse
du vent
Direction Rafales Windchill Pression Pluviométrie
Cumul
Date
Heure
Températures Humidité Point de rosée Vitesse
du vent
Direction Rafales Windchill Pression Pluviométrie
Cumul
21/10/2021 13:5916.8 °C64 %10.0 °C5 km/hN55 km/h16.7 1016 hPa0.2 mm
21/10/2021 13:4416.5 °C65 %10.0 °C2 km/hN55 km/h16.7 1016 hPa0.2 mm
21/10/2021 13:2916.0 °C67 %10.0 °C3 km/hN55 km/h16.1 1016 hPa0.2 mm
21/10/2021 13:1415.7 °C67 %9.4 °C16 km/hN55 km/h13.9 1016 hPa0.2 mm
21/10/2021 13:0015.7 °C69 %10.0 °C10 km/hN55 km/h15.0 1016 hPa0.2 mm
21/10/2021 12:4415.8 °C68 %10.0 °C8 km/hN55 km/h15.6 1016 hPa0.2 mm
21/10/2021 12:2915.9 °C67 %10.0 °C18 km/hN55 km/h14.4 1016 hPa0.2 mm
21/10/2021 12:1415.6 °C68 %9.4 °C6 km/hN55 km/h15.6 1016 hPa0.2 mm
21/10/2021 11:5815.2 °C70 %10.0 °C18 km/hN55 km/h12.8 1017 hPa0.2 mm
21/10/2021 11:4415.1 °C71 %10.0 °C23 km/hN55 km/h12.2 1017 hPa0.2 mm
21/10/2021 11:2914.8 °C72 %10.0 °C18 km/hN55 km/h12.8 1017 hPa0.2 mm
21/10/2021 11:1414.4 °C74 %10.0 °C13 km/hN55 km/h13.3 1017 hPa0.2 mm
21/10/2021 10:5914.0 °C75 %9.4 °C6 km/hN55 km/h13.9 1017 hPa0.2 mm
21/10/2021 10:4413.3 °C78 %9.4 °C8 km/hN55 km/h12.8 1016 hPa0.2 mm
21/10/2021 10:2912.6 °C80 %9.4 °C14 km/hN55 km/h11.1 1017 hPa0.2 mm
21/10/2021 10:1412.1 °C81 %8.9 °C6 km/hN55 km/h12.2 1016 hPa0.2 mm
21/10/2021 09:5911.6 °C83 %8.9 °C13 km/hN55 km/h10.0 1016 hPa0.2 mm
21/10/2021 09:4411.2 °C84 %8.3 °C3 km/hN55 km/h11.1 1016 hPa0.2 mm
21/10/2021 09:2910.8 °C84 %8.3 °C14 km/hN55 km/h8.9 1016 hPa0.2 mm
21/10/2021 09:1410.6 °C84 %7.8 °C5 km/hN55 km/h10.6 1016 hPa0.2 mm
21/10/2021 08:5910.6 °C84 %7.8 °C-N55 km/h10.6 1015 hPa0.2 mm
21/10/2021 08:4410.6 °C84 %7.8 °C6 km/hN55 km/h10.6 1015 hPa0.2 mm
21/10/2021 08:2910.7 °C83 %7.8 °C2 km/hN55 km/h10.6 1015 hPa0.2 mm
21/10/2021 08:1410.8 °C83 %8.3 °C6 km/hN55 km/h11.1 1015 hPa0.2 mm
21/10/2021 07:5911.0 °C82 %8.3 °C6 km/hN55 km/h11.1 1015 hPa0.2 mm
21/10/2021 07:4411.2 °C82 %8.3 °C5 km/hN55 km/h11.1 1015 hPa0.2 mm
21/10/2021 07:2911.5 °C81 %8.3 °C6 km/hN55 km/h11.7 1015 hPa0.2 mm
21/10/2021 07:1411.7 °C80 %8.3 °C5 km/hN55 km/h11.7 1014 hPa0.2 mm
21/10/2021 06:5912.0 °C79 %8.3 °C6 km/hN55 km/h12.2 1014 hPa0.2 mm
21/10/2021 06:4412.3 °C78 %8.3 °C10 km/hN55 km/h11.1 1014 hPa0.2 mm
21/10/2021 06:2912.2 °C79 %8.9 °C19 km/hN55 km/h9.4 1013 hPa0.2 mm
21/10/2021 06:1412.3 °C78 %8.3 °C10 km/hN55 km/h11.1 1013 hPa0.2 mm
21/10/2021 06:0012.2 °C78 %8.3 °C3 km/hN55 km/h12.2 1013 hPa0.2 mm
21/10/2021 05:4512.3 °C78 %8.3 °C18 km/hN55 km/h9.4 1013 hPa0.2 mm
21/10/2021 05:2912.4 °C77 %8.3 °C14 km/hN55 km/h10.0 1012 hPa0.2 mm
21/10/2021 05:1412.6 °C77 %8.9 °C21 km/hN55 km/h10.0 1012 hPa0.2 mm
21/10/2021 05:0012.7 °C76 %8.3 °C18 km/hN55 km/h10.6 1011 hPa0.2 mm
21/10/2021 04:4412.8 °C76 %8.9 °C16 km/hN55 km/h10.6 1011 hPa0.2 mm
21/10/2021 04:2912.9 °C76 %8.9 °C13 km/hN55 km/h11.1 1011 hPa0.2 mm
21/10/2021 04:1413.1 °C74 %8.3 °C10 km/hN55 km/h12.8 1010 hPa0.2 mm
21/10/2021 03:5913.2 °C73 %8.3 °C31 km/hN55 km/h9.4 1010 hPa0.2 mm
21/10/2021 03:4413.4 °C73 %8.9 °C18 km/hN55 km/h11.1 1010 hPa0.2 mm
21/10/2021 03:2913.7 °C73 %8.9 °C19 km/hN55 km/h11.7 1009 hPa0.2 mm
21/10/2021 03:1413.9 °C72 %8.9 °C19 km/hN55 km/h11.7 1009 hPa0.2 mm
21/10/2021 02:5914.1 °C71 %8.9 °C23 km/hN55 km/h11.1 1009 hPa0.2 mm
21/10/2021 02:4414.3 °C70 %8.9 °C14 km/hN55 km/h12.8 1008 hPa0.2 mm
21/10/2021 02:2914.4 °C69 %8.9 °C24 km/hN55 km/h11.7 1007 hPa0.2 mm
21/10/2021 02:1414.3 °C69 %8.9 °C24 km/hN50 km/h11.7 1007 hPa0.2 mm
21/10/2021 01:5914.3 °C70 %8.9 °C40 km/hN50 km/h10.0 1007 hPa0.2 mm
21/10/2021 01:4414.2 °C72 %9.4 °C14 km/hN50 km/h12.8 1007 hPa0.2 mm
21/10/2021 01:2914.1 °C74 %9.4 °C34 km/hN50 km/h9.4 1006 hPa0.2 mm
21/10/2021 01:1414.3 °C75 %10.0 °C13 km/hN50 km/h13.3 1006 hPa0.2 mm
21/10/2021 00:5914.2 °C77 %10.0 °C19 km/hN50 km/h12.2 1006 hPa0.2 mm
21/10/2021 00:4414.1 °C79 %10.6 °C13 km/hN50 km/h12.8 1006 hPa0.2 mm
21/10/2021 00:2914.1 °C80 %10.6 °C24 km/hN50 km/h10.6 1006 hPa0.2 mm
21/10/2021 00:1414.6 °C79 %11.1 °C6 km/hN50 km/h14.4 1006 hPa0.2 mm


Minima :

Température : 10.6 °C
Humidité : 64 %
Point de rosée : 7.8 °C
Vent moyen : 2 km/h
Windchill : 8.9
Pression atm. : 1006 hPa
Maxima :

Température : 16.8 °C
Humidité : 84 %
Point de rosée : 11.1 °C
Vent moyen : 40 km/h
Windchill : 16.7
Pression atm. : 1017 hPa
Rafales max : 55 km/h
Cumul de pluie sur 24H : 0.2 mm

Salbris est une commune du département Loir-et-Cher (41).
La station météorologique du réseau de l'association la plus proche de Salbris est celle de Orçay



Icône Facebook Association Météo Centre Icône Twitter Association Météo Centre Icône Chaîne Youtube Association Météo Centre Icône contact Association Météo Centre Icône Insta Association Météo Centre